• Join FlightAware (Why Join?)
  • Login
  • US Flag 
10:06AM EST


 

Airport Tracker/Info


-or-


 

Live Flight TrackerFlight Track Log ✈ SWA407 ✈ 23-Oct-2013 ✈ KTUL - KSTL

Flight Track Log - Related Links

Times and Time Zones

All times are in EDT time to prevent confusion due to time zone crossing. See the SWA407 flight status page for this flight to view local times or setup timezone preferences in your user account.

Time Position Orientation Groundspeed Altitude Reporting Facility
EDT Latitude Longitude Course Direction KTS MPH feet Rate Location/Type
06:55PM 36.1333 -95.8508 155° Southeast 227 261 3,700  Level Kansas City Center
06:56PM 36.1350 -95.8375 81° East 279 321 3,900 2,262 Climbing Kansas City Center
06:56PM 36.1761 -95.7622 56° Northeast 321 369 6,000 2,419 Climbing Kansas City Center
06:57PM 36.1794 -95.7539 64° Northeast 297 342 6,400 3,300 Climbing Kansas City Center
06:57PM 36.2208 -95.6736 57° Northeast 312 359 9,300 3,000 Climbing Kansas City Center
06:58PM 36.2247 -95.6642 63° Northeast 305 351 9,500 2,066 Climbing Kansas City Center
06:58PM 36.2689 -95.5764 58° Northeast 342 394 11,400 2,613 Climbing Kansas City Center
06:59PM 36.2831 -95.5467 59° Northeast 335 386 12,200 2,656 Climbing Kansas City Center
06:59PM 36.3206 -95.4711 58° Northeast 370 426 14,100 2,476 Climbing Kansas City Center
07:00PM 36.3356 -95.4417 58° Northeast 358 412 14,800 1,037 Climbing Kansas City Center
07:01PM 36.3917 -95.3278 59° Northeast 389 448 15,500 1,403 Climbing Kansas City Center
07:02PM 36.4486 -95.2142 58° Northeast 391 450 17,700 2,226 Climbing Kansas City Center
07:03PM 36.5144 -95.0806 58° Northeast 392 451 20,100 2,177 Climbing Kansas City Center
07:04PM 36.5733 -94.9608 58° Northeast 401 461 22,200 1,742 Climbing Kansas City Center
07:05PM 36.6342 -94.8356 59° Northeast 415 478 23,700 1,694 Climbing Kansas City Center
07:06PM 36.6983 -94.7072 58° Northeast 430 495 25,700 1,597 Climbing Kansas City Center
07:07PM 36.7603 -94.5789 59° Northeast 433 498 27,000 629 Climbing Kansas City Center
07:08PM 36.8308 -94.4528 55° Northeast 440 506 27,000  Level Kansas City Center
07:09PM 36.9247 -94.3061 51° Northeast 449 517 27,000 242 Level Kansas City Center
07:10PM 37.0019 -94.1794 53° Northeast 455 524 27,500 1,355 Climbing Kansas City Center
07:11PM 37.0794 -94.0553 52° Northeast 455 524 29,800 1,680 Climbing Kansas City Center
07:12PM 37.1572 -93.9306 52° Northeast 437 503 31,000 576 Climbing Kansas City Center
07:13PM 37.2306 -93.8092 53° Northeast 436 502 31,000  Level Kansas City Center
07:14PM 37.3056 -93.6883 52° Northeast 437 503 31,000  Level Kansas City Center
07:15PM 37.3789 -93.5667 53° Northeast 436 502 31,000  Level Kansas City Center
07:16PM 37.4542 -93.4464 52° Northeast 436 502 31,000 -290 Level Kansas City Center
07:17PM 37.5419 -93.2983 53° Northeast 438 504 30,400 -484 Descending Kansas City Center
07:18PM 37.6183 -93.1725 53° Northeast 446 513 30,000 -194 Descending Kansas City Center
07:19PM 37.6972 -93.0411 53° Northeast 461 531 30,000  Level Kansas City Center
07:20PM 37.7767 -92.9089 53° Northeast 469 540 30,000 -532 Level Kansas City Center
07:22PM 37.8547 -92.7783 53° Northeast 465 535 28,900 -1,016 Descending Kansas City Center
07:23PM 37.9342 -92.6397 54° Northeast 481 554 27,900 -968 Descending Kansas City Center
07:24PM 38.0081 -92.5017 56° Northeast 479 551 26,900 -1,016 Descending Kansas City Center
07:25PM 38.0817 -92.3669 55° Northeast 473 544 25,800 -1,113 Descending Kansas City Center
07:26PM 38.1689 -92.2033 56° Northeast 468 539 24,600 -1,016 Descending Kansas City Center
07:27PM 38.2328 -92.0828 56° Northeast 461 531 23,700 -1,016 Descending Kansas City Center
07:28PM 38.3167 -91.9244 56° Northeast 451 519 22,500 -1,065 Descending Kansas City Center
07:29PM 38.3836 -91.7964 56° Northeast 439 505 21,500 -1,016 Descending Kansas City Center
07:30PM 38.4497 -91.6725 56° Northeast 425 489 20,400 -1,016 Descending Kansas City Center
07:31PM 38.5117 -91.5514 57° Northeast 412 474 19,400 -919 Descending Kansas City Center
07:32PM 38.5750 -91.4314 56° Northeast 407 468 18,500 -919 Descending Kansas City Center
07:33PM 38.6414 -91.3058 56° Northeast 400 460 17,500 -968 Descending Kansas City Center
07:34PM 38.6939 -91.1825 61° Northeast 397 457 16,500 -1,296 Descending Kansas City Center
07:35PM 38.6981 -91.0306 88° East 420 483 14,800 -1,935 Descending Kansas City Center
07:36PM 38.7022 -90.8836 88° East 418 481 12,500 -2,195 Descending Kansas City Center
07:37PM 38.7050 -90.7381 89° East 412 474 10,300 -1,258 Descending Kansas City Center
07:38PM 38.7122 -90.5839 87° East 366 421 9,900 -290 Descending Kansas City Center
07:39PM 38.6886 -90.4728 105° East 345 397 9,700 -1,113 Descending Kansas City Center
07:40PM 38.6400 -90.3739 122° Southeast 346 398 7,600 -1,694 Descending Kansas City Center
07:41PM 38.5947 -90.2839 123° Southeast 313 360 6,200 -1,306 Descending Kansas City Center
07:42PM 38.5444 -90.1861 123° Southeast 290 334 4,900 -968 Descending Kansas City Center
07:43PM 38.5828 -90.1333 47° Northeast 242 278 4,200 -823 Descending Kansas City Center
07:44PM 38.6281 -90.1556 339° North 200 230 3,200 -1,008 Descending Kansas City Center
07:45PM 38.6600 -90.2008 312° West 183 211 2,100 -576 Descending Kansas City Center
07:46PM 38.6906 -90.2456 311° West 173 199 2,000 -242 Descending Kansas City Center
07:47PM 38.7147 -90.2906 305° West 139 160 1,600 -532 Descending Kansas City Center
07:48PM 38.7333 -90.3283 302° West 130 150 900 -484 Descending Kansas City Center
07:49PM 38.7514 -90.3644 303° West 129 148 600 -290 Descending Kansas City Center